Weather

Current Metar report

KALM 162335Z AUTO 20004KT 10SM CLR 34/00 A2989 RMK AO2


Metar history is on Flightaware.

KALM AWOS Info
Phone Number: 575-439-4112
Freq: 127.825 MHz

KALM Weather Links

Soaring Forecasts Links